This is the latest recevied weather packets stored in our database for station/object HP3ICC-22. If no packets are shown the sender has not sent any weather packets the latest 10 day(s).
| Time | Temp. | Humidity | Pressure | Rain* | Wind** | Luminosity | Snow |
|---|---|---|---|---|---|---|---|
| 1777714908 | 8.89° C | 90% | 1012 hPa | 0 mm | - | - | - |
| 1777714847 | 8.89° C | 90% | 1012 hPa | 0 mm | - | - | - |
| 1777713707 | 9.44° C | 90% | 1011 hPa | 0 mm | - | - | - |
| 1777713647 | 9.44° C | 90% | 1011 hPa | 0 mm | - | - | - |
| 1777712507 | 9.44° C | 91% | 1012 hPa | 0 mm | - | - | - |
| 1777712446 | 9.44° C | 91% | 1012 hPa | 0 mm | - | - | - |
| 1777711305 | 10° C | 81% | 1012 hPa | 0 mm | - | - | - |
| 1777711245 | 10° C | 81% | 1012 hPa | 0 mm | - | - | - |
| 1777710105 | 9.44° C | 88% | 1011 hPa | 0 mm | - | - | - |
| 1777710044 | 9.44° C | 88% | 1011 hPa | 0 mm | - | - | - |
| 1777708904 | 9.44° C | 83% | 1012 hPa | 0 mm | - | - | - |
| 1777708844 | 9.44° C | 83% | 1012 hPa | 0 mm | - | - | - |
| 1777707704 | 10.56° C | 81% | 1012 hPa | 0 mm | - | - | - |
| 1777707644 | 10.56° C | 81% | 1012 hPa | 0 mm | - | - | - |
| 1777706503 | 10° C | 93% | 1012 hPa | 0 mm | - | - | - |
| 1777706443 | 10° C | 93% | 1012 hPa | 0 mm | - | - | - |
| 1777705303 | 10.56° C | 81% | 1012 hPa | 0 mm | - | - | - |
| 1777705242 | 10.56° C | 81% | 1012 hPa | 0 mm | - | - | - |
| 1777704102 | 10° C | 93% | 1012 hPa | 0 mm | - | - | - |
| 1777704042 | 10° C | 93% | 1012 hPa | 0 mm | - | - | - |
| 1777702902 | 10.56° C | 81% | 1012 hPa | 0 mm | - | - | - |
| 1777702841 | 10.56° C | 81% | 1012 hPa | 0 mm | - | - | - |
| 1777701701 | 9.44° C | 93% | 1013 hPa | 0 mm | - | - | - |
| 1777701641 | 9.44° C | 93% | 1013 hPa | 0 mm | - | - | - |
| 1777700501 | 10° C | 93% | 1013 hPa | 0 mm | - | - | - |
* Rain latest hour (hover to see other rain measurements)
** Current wind speed in m/s (hover to see current wind gust speed)